createdAt,value
2022-11-04T00:02:05.800Z,13.10
2022-11-04T00:04:33.927Z,13.00
2022-11-04T00:07:23.722Z,13.10
2022-11-04T00:09:51.654Z,13.10
2022-11-04T00:12:27.820Z,13.10
2022-11-04T00:15:15.840Z,13.10
2022-11-04T00:17:42.996Z,13.10
2022-11-04T00:20:29.365Z,13.10
2022-11-04T00:23:16.467Z,13.10
2022-11-04T00:26:01.679Z,13.00
2022-11-04T00:28:44.549Z,13.00
2022-11-04T00:31:30.265Z,13.00
2022-11-04T00:33:59.817Z,13.00
2022-11-04T00:36:27.968Z,13.00
2022-11-04T00:38:57.344Z,13.10
2022-11-04T00:41:28.894Z,13.10
2022-11-04T00:43:58.103Z,13.10
2022-11-04T00:46:26.969Z,13.00
2022-11-04T00:48:55.153Z,13.00
2022-11-04T00:51:23.277Z,12.90
2022-11-04T00:53:51.752Z,12.90
2022-11-04T00:56:21.390Z,12.90
2022-11-04T00:58:50.331Z,12.80
2022-11-04T01:01:19.951Z,12.80
2022-11-04T01:03:49.852Z,12.80
2022-11-04T01:06:17.951Z,12.70
2022-11-04T01:08:46.193Z,12.70
2022-11-04T01:11:14.863Z,12.60
2022-11-04T01:13:44.277Z,12.60
2022-11-04T01:16:13.761Z,12.50
2022-11-04T01:18:42.125Z,12.50
2022-11-04T01:21:13.129Z,12.40
2022-11-04T01:23:43.076Z,12.40
2022-11-04T01:26:14.344Z,12.40
2022-11-04T01:28:43.971Z,12.40
2022-11-04T01:31:14.273Z,12.40
2022-11-04T01:33:42.223Z,12.40
2022-11-04T01:36:12.286Z,12.40
2022-11-04T01:38:40.840Z,12.30
2022-11-04T01:41:12.912Z,12.30
2022-11-04T01:43:47.432Z,12.30
2022-11-04T01:46:24.252Z,12.30
2022-11-04T01:48:53.514Z,12.20
2022-11-04T01:51:23.209Z,12.20
2022-11-04T01:53:56.197Z,12.20
2022-11-04T01:56:27.148Z,12.20
2022-11-04T01:59:03.672Z,12.20
2022-11-04T02:01:31.770Z,12.10
2022-11-04T02:04:22.132Z,12.10
2022-11-04T02:06:52.046Z,12.10
2022-11-04T02:09:22.195Z,12.00
2022-11-04T02:12:07.388Z,12.00
2022-11-04T02:14:37.677Z,12.00
2022-11-04T02:17:20.293Z,12.00
2022-11-04T02:20:01.421Z,12.00
2022-11-04T02:23:12.111Z,12.00
2022-11-04T02:26:08.431Z,12.00
2022-11-04T02:29:05.642Z,11.90
2022-11-04T02:31:41.870Z,11.90
2022-11-04T02:34:16.863Z,11.90
2022-11-04T02:36:49.267Z,11.90
2022-11-04T02:39:29.824Z,11.90
2022-11-04T02:42:02.106Z,11.90
2022-11-04T02:44:38.528Z,11.90
2022-11-04T02:47:09.517Z,11.90
2022-11-04T02:49:42.089Z,11.90
2022-11-04T02:52:13.830Z,11.90
2022-11-04T02:54:48.535Z,11.90
2022-11-04T02:57:20.740Z,12.00
2022-11-04T02:59:55.143Z,11.90
2022-11-04T03:02:29.008Z,11.90
2022-11-04T03:04:59.278Z,11.90
2022-11-04T03:07:30.659Z,11.80
2022-11-04T03:10:03.882Z,11.80
2022-11-04T03:12:38.514Z,11.80
2022-11-04T03:15:12.234Z,11.80
2022-11-04T03:17:48.110Z,11.80
2022-11-04T03:20:20.641Z,11.80
2022-11-04T03:22:48.675Z,11.70
2022-11-04T03:25:17.481Z,11.80
2022-11-04T03:27:50.809Z,11.70
2022-11-04T03:30:21.778Z,11.80
2022-11-04T03:32:59.114Z,11.80
2022-11-04T03:35:28.101Z,11.80
2022-11-04T03:37:56.365Z,11.80
2022-11-04T03:40:24.671Z,11.80
2022-11-04T03:42:57.201Z,11.80
2022-11-04T03:45:27.638Z,11.90
2022-11-04T03:47:57.737Z,11.90
2022-11-04T03:50:29.409Z,11.90
2022-11-04T03:52:59.150Z,12.00
2022-11-04T03:55:38.628Z,12.00
2022-11-04T03:58:12.550Z,12.00
2022-11-04T04:00:49.627Z,12.00
2022-11-04T04:03:22.164Z,12.00
2022-11-04T04:05:55.035Z,12.00
2022-11-04T04:08:32.104Z,12.00
2022-11-04T04:11:08.261Z,12.00
2022-11-04T04:13:43.107Z,12.00
2022-11-04T04:16:20.033Z,12.00
2022-11-04T04:18:55.800Z,12.00
2022-11-04T04:21:30.904Z,12.00
2022-11-04T04:24:19.311Z,12.00
2022-11-04T04:27:07.340Z,12.00
2022-11-04T04:29:37.683Z,12.00
2022-11-04T04:32:08.463Z,12.10
2022-11-04T04:34:36.955Z,12.10
2022-11-04T04:37:09.099Z,12.10
2022-11-04T04:39:58.866Z,12.10
2022-11-04T04:42:44.755Z,12.10
2022-11-04T04:45:22.276Z,12.10
2022-11-04T04:47:52.981Z,12.10
2022-11-04T04:50:22.722Z,12.00
2022-11-04T04:52:54.367Z,12.00
2022-11-04T04:55:22.409Z,12.00
2022-11-04T04:57:50.343Z,12.00
2022-11-04T05:00:21.369Z,12.00
2022-11-04T05:02:51.429Z,12.00
2022-11-04T05:05:19.987Z,11.90
2022-11-04T05:07:48.037Z,11.90
2022-11-04T05:10:17.731Z,11.90
2022-11-04T05:13:03.790Z,11.80
2022-11-04T05:15:32.730Z,11.80
2022-11-04T05:18:03.529Z,11.80
2022-11-04T05:20:34.433Z,11.70
2022-11-04T05:23:02.796Z,11.70
2022-11-04T05:25:31.182Z,11.60
2022-11-04T05:28:01.116Z,11.60
2022-11-04T05:30:29.014Z,11.60
2022-11-04T05:33:00.037Z,11.60
2022-11-04T05:35:33.271Z,11.50
2022-11-04T05:38:01.348Z,11.50
2022-11-04T05:40:29.372Z,11.40
2022-11-04T05:42:59.360Z,11.40
2022-11-04T05:45:27.367Z,11.40
2022-11-04T05:47:59.876Z,11.40
2022-11-04T05:50:28.449Z,11.40
2022-11-04T05:52:59.128Z,11.30
2022-11-04T05:55:27.204Z,11.30
2022-11-04T05:57:55.421Z,11.30
2022-11-04T06:00:23.559Z,11.20
2022-11-04T06:02:51.763Z,11.20
2022-11-04T06:05:19.765Z,11.10
2022-11-04T06:07:47.790Z,11.10
2022-11-04T06:10:17.543Z,11.10
2022-11-04T06:12:45.518Z,11.10
2022-11-04T06:15:13.435Z,11.10
2022-11-04T06:17:41.366Z,11.10
2022-11-04T06:20:10.857Z,11.10
2022-11-04T06:22:39.020Z,11.10
2022-11-04T06:25:07.322Z,11.10
2022-11-04T06:27:36.587Z,11.10
2022-11-04T06:30:05.320Z,11.10
2022-11-04T06:32:33.171Z,11.10
2022-11-04T06:35:01.223Z,11.10
2022-11-04T06:37:29.768Z,11.20
2022-11-04T06:39:57.661Z,11.10
2022-11-04T06:42:26.892Z,11.20
2022-11-04T06:44:56.152Z,11.10
2022-11-04T06:47:25.087Z,11.10
2022-11-04T06:49:53.222Z,11.10
2022-11-04T06:52:21.091Z,11.10
2022-11-04T06:54:49.006Z,11.00
2022-11-04T06:57:16.955Z,11.10
2022-11-04T06:59:44.947Z,11.00
2022-11-04T07:02:14.348Z,11.00
2022-11-04T07:04:45.751Z,11.00
2022-11-04T07:07:14.367Z,11.00
2022-11-04T07:09:42.459Z,11.00
2022-11-04T07:12:10.391Z,11.00
2022-11-04T07:14:38.842Z,11.00
2022-11-04T07:17:07.878Z,11.00
2022-11-04T07:19:38.748Z,11.00
2022-11-04T07:22:10.365Z,11.00
2022-11-04T07:24:39.619Z,11.00
2022-11-04T07:27:12.274Z,11.00
2022-11-04T07:29:42.185Z,11.00
2022-11-04T07:32:11.827Z,10.90
2022-11-04T07:34:50.984Z,10.90
2022-11-04T07:37:21.698Z,10.90
2022-11-04T07:39:59.256Z,10.90
2022-11-04T07:42:27.175Z,10.90
2022-11-04T07:44:55.049Z,10.90
2022-11-04T07:47:23.148Z,10.90
2022-11-04T07:49:52.782Z,10.90
2022-11-04T07:52:20.692Z,10.90
2022-11-04T07:54:48.563Z,11.00
2022-11-04T07:57:16.452Z,11.00
2022-11-04T07:59:44.313Z,11.00
2022-11-04T08:02:13.448Z,11.00
2022-11-04T08:04:41.482Z,11.10
2022-11-04T08:07:11.014Z,11.10
2022-11-04T08:09:39.253Z,11.10
2022-11-04T08:12:07.694Z,11.20
2022-11-04T08:14:35.614Z,11.30
2022-11-04T08:17:03.837Z,11.30
2022-11-04T08:19:31.818Z,11.40
2022-11-04T08:21:59.829Z,11.40
2022-11-04T08:24:29.903Z,11.50
2022-11-04T08:26:58.144Z,11.50
2022-11-04T08:29:26.151Z,11.50
2022-11-04T08:31:54.449Z,11.60
2022-11-04T08:34:22.305Z,11.60
2022-11-04T08:36:50.206Z,11.60
2022-11-04T08:39:18.232Z,11.70
2022-11-04T08:41:48.515Z,11.70
2022-11-04T08:44:16.779Z,11.70
2022-11-04T08:46:46.209Z,11.70
2022-11-04T08:49:19.594Z,11.80
2022-11-04T08:51:56.423Z,11.80
2022-11-04T08:54:24.474Z,11.90
2022-11-04T08:56:54.536Z,11.90
2022-11-04T08:59:22.993Z,12.00
2022-11-04T09:01:50.920Z,12.00
2022-11-04T09:04:19.698Z,12.10
2022-11-04T09:06:48.669Z,12.10
2022-11-04T09:09:18.088Z,12.20
2022-11-04T09:11:46.933Z,12.20
2022-11-04T09:14:17.892Z,12.30
2022-11-04T09:16:46.011Z,12.40
2022-11-04T09:19:13.863Z,12.40
2022-11-04T09:21:41.837Z,12.50
2022-11-04T09:24:11.608Z,12.50
2022-11-04T09:26:39.904Z,12.50
2022-11-04T09:29:09.765Z,12.60
2022-11-04T09:31:39.940Z,12.60
2022-11-04T09:34:07.800Z,12.60
2022-11-04T09:36:35.676Z,12.70
2022-11-04T09:39:03.626Z,12.70
2022-11-04T09:41:43.190Z,12.70
2022-11-04T09:44:23.099Z,12.80
2022-11-04T09:46:55.957Z,12.80
2022-11-04T09:49:26.180Z,12.80
2022-11-04T09:51:56.548Z,12.80
2022-11-04T09:54:26.507Z,12.80
2022-11-04T09:56:56.514Z,12.80
2022-11-04T09:59:28.310Z,12.80
2022-11-04T10:02:27.224Z,12.90
2022-11-04T10:05:04.815Z,12.90
2022-11-04T10:07:59.895Z,12.90
2022-11-04T10:10:35.495Z,13.00
2022-11-04T10:13:16.602Z,13.00
2022-11-04T10:16:25.606Z,13.10
2022-11-04T10:19:07.945Z,13.20
2022-11-04T10:21:46.231Z,13.20
2022-11-04T10:24:20.584Z,13.30
2022-11-04T10:26:59.034Z,13.40
2022-11-04T10:29:32.119Z,13.40
2022-11-04T10:32:03.045Z,13.50
2022-11-04T10:34:38.288Z,13.60
2022-11-04T10:37:10.613Z,13.60
2022-11-04T10:39:44.264Z,13.70
2022-11-04T10:42:14.615Z,13.70
2022-11-04T10:44:42.857Z,13.70
2022-11-04T10:47:22.853Z,13.70
2022-11-04T10:50:27.835Z,13.70
2022-11-04T10:52:48.365Z,13.70
2022-11-04T10:55:30.046Z,13.80
2022-11-04T10:57:59.438Z,13.80
2022-11-04T11:00:38.294Z,13.80
2022-11-04T11:03:25.021Z,13.80
2022-11-04T11:05:55.884Z,13.80
2022-11-04T11:08:32.643Z,13.70
2022-11-04T11:11:00.922Z,13.70
2022-11-04T11:13:36.710Z,13.70
2022-11-04T11:16:11.822Z,13.70
2022-11-04T11:18:41.707Z,13.70
2022-11-04T11:21:13.576Z,13.70
2022-11-04T11:23:43.843Z,13.70
2022-11-04T11:26:15.376Z,13.70
2022-11-04T11:28:53.123Z,13.60
2022-11-04T11:31:26.896Z,13.60
2022-11-04T11:33:57.996Z,13.60
2022-11-04T11:36:29.505Z,13.60
2022-11-04T11:39:05.957Z,13.60
2022-11-04T11:41:41.007Z,13.50
2022-11-04T11:44:25.493Z,13.50
2022-11-04T11:46:56.183Z,13.50
2022-11-04T11:49:28.965Z,13.50
2022-11-04T11:52:19.610Z,13.40
2022-11-04T11:54:49.910Z,13.40
2022-11-04T11:57:33.039Z,13.40
2022-11-04T12:03:02.598Z,13.40
2022-11-04T12:11:42.737Z,13.40
2022-11-04T12:14:18.174Z,13.40
2022-11-04T12:16:57.501Z,13.40
2022-11-04T12:19:41.542Z,13.40
2022-11-04T12:22:21.123Z,13.50
2022-11-04T12:24:59.934Z,13.50
2022-11-04T12:27:35.483Z,13.60
2022-11-04T12:30:08.718Z,13.60
2022-11-04T12:32:45.310Z,13.60
2022-11-04T12:35:30.538Z,13.70
2022-11-04T12:38:20.674Z,13.80
2022-11-04T12:43:57.628Z,13.80
2022-11-04T12:46:33.694Z,13.90
2022-11-04T12:49:32.340Z,13.90
2022-11-04T12:52:08.026Z,14.00
2022-11-04T12:54:51.893Z,13.90
2022-11-04T12:57:28.701Z,14.00
2022-11-04T13:00:10.085Z,14.10
2022-11-04T13:02:43.343Z,14.20
2022-11-04T13:05:30.241Z,14.20
2022-11-04T13:08:08.592Z,14.20
2022-11-04T13:10:43.638Z,14.30
2022-11-04T13:13:16.546Z,14.30
2022-11-04T13:15:48.322Z,14.30
2022-11-04T13:18:20.458Z,14.30
2022-11-04T13:20:56.862Z,14.30
2022-11-04T13:23:33.857Z,14.30
2022-11-04T13:26:03.662Z,14.30
2022-11-04T13:28:33.553Z,14.30
2022-11-04T13:31:07.065Z,14.30
2022-11-04T13:33:48.803Z,14.30
2022-11-04T13:36:28.588Z,14.30
2022-11-04T13:39:01.927Z,14.30
2022-11-04T13:41:51.113Z,14.30
2022-11-04T13:44:25.970Z,14.30
2022-11-04T13:46:58.521Z,14.40
2022-11-04T13:49:32.561Z,14.40
2022-11-04T13:52:08.209Z,14.40
2022-11-04T13:54:41.779Z,14.40
2022-11-04T13:57:13.648Z,14.40
2022-11-04T13:59:46.461Z,14.40
2022-11-04T14:02:43.583Z,14.40
2022-11-04T14:05:56.520Z,14.40
2022-11-04T14:08:24.722Z,14.40
2022-11-04T14:11:12.012Z,14.30
2022-11-04T14:14:10.995Z,14.30
2022-11-04T14:16:47.461Z,14.30
2022-11-04T14:19:57.945Z,14.30
2022-11-04T14:22:36.102Z,14.10
2022-11-04T14:25:21.397Z,13.90
2022-11-04T14:27:50.935Z,13.70
2022-11-04T14:30:36.251Z,13.60
2022-11-04T14:33:09.679Z,13.50
2022-11-04T14:35:38.154Z,13.30
2022-11-04T14:38:21.387Z,13.20
2022-11-04T14:40:53.954Z,13.10
2022-11-04T14:43:36.081Z,13.10
2022-11-04T14:46:04.429Z,13.10
2022-11-04T14:48:34.255Z,13.00
2022-11-04T14:51:05.233Z,12.90
2022-11-04T14:53:35.043Z,12.90
2022-11-04T14:56:08.238Z,13.00
2022-11-04T14:58:37.666Z,12.90
2022-11-04T15:01:07.784Z,12.90
2022-11-04T15:04:10.652Z,12.90
2022-11-04T15:06:40.593Z,13.00
2022-11-04T15:09:23.722Z,12.90
2022-11-04T15:12:10.752Z,12.90
2022-11-04T15:14:39.108Z,12.90
2022-11-04T15:17:07.470Z,12.90
2022-11-04T15:19:37.653Z,12.90
2022-11-04T15:22:07.316Z,12.90
2022-11-04T15:24:36.690Z,12.90
2022-11-04T15:27:07.408Z,12.90
2022-11-04T15:29:35.309Z,12.90
2022-11-04T15:32:05.926Z,12.90
2022-11-04T15:34:37.250Z,12.90
2022-11-04T15:37:07.731Z,12.90
2022-11-04T15:39:38.833Z,12.80
2022-11-04T15:42:27.495Z,12.90
2022-11-04T15:44:57.209Z,12.90
2022-11-04T15:47:27.226Z,13.00
2022-11-04T15:50:05.245Z,13.00
2022-11-04T15:52:33.587Z,13.10
2022-11-04T15:55:03.404Z,13.10
2022-11-04T15:57:34.504Z,13.10
2022-11-04T16:00:24.485Z,13.20
2022-11-04T16:02:56.367Z,13.20
2022-11-04T16:05:31.433Z,13.20
2022-11-04T16:08:20.136Z,13.30
2022-11-04T16:10:49.351Z,13.30
2022-11-04T16:13:25.822Z,13.20
2022-11-04T16:16:09.276Z,13.20
2022-11-04T16:18:40.089Z,13.20
2022-11-04T16:21:14.911Z,13.20
2022-11-04T16:23:46.816Z,13.10
2022-11-04T16:26:14.921Z,13.00
2022-11-04T16:28:44.129Z,13.00
2022-11-04T16:31:27.725Z,12.80
2022-11-04T16:33:56.469Z,12.80
2022-11-04T16:36:29.759Z,12.70
2022-11-04T16:39:04.855Z,12.60
2022-11-04T16:41:37.547Z,12.50
2022-11-04T16:44:06.406Z,12.40
2022-11-04T16:46:35.754Z,12.40
2022-11-04T16:49:03.655Z,12.30
2022-11-04T16:51:35.297Z,12.30
2022-11-04T16:54:04.758Z,12.30
2022-11-04T16:56:35.744Z,12.30
2022-11-04T16:59:03.658Z,12.20
2022-11-04T17:01:33.874Z,12.20
2022-11-04T17:04:04.357Z,12.20
2022-11-04T17:06:34.580Z,12.10
2022-11-04T17:09:03.095Z,12.10
2022-11-04T17:11:31.514Z,12.10
2022-11-04T17:13:59.684Z,12.10
2022-11-04T17:16:27.735Z,12.10
2022-11-04T17:18:55.954Z,12.10
2022-11-04T17:21:26.328Z,12.10
2022-11-04T17:23:57.090Z,12.10
2022-11-04T17:26:24.979Z,12.00
2022-11-04T17:28:53.072Z,12.00
2022-11-04T17:31:21.793Z,12.00
2022-11-04T17:33:50.399Z,12.00
2022-11-04T17:36:20.151Z,12.00
2022-11-04T17:38:49.629Z,12.00
2022-11-04T17:41:36.712Z,12.00
2022-11-04T17:44:05.099Z,12.00
2022-11-04T17:46:35.112Z,11.90
2022-11-04T17:49:08.929Z,11.90
2022-11-04T17:51:37.464Z,11.90
2022-11-04T17:54:05.989Z,11.90
2022-11-04T17:56:35.666Z,11.90
2022-11-04T17:59:05.404Z,11.90
2022-11-04T18:01:35.901Z,11.90
2022-11-04T18:04:04.557Z,11.90
2022-11-04T18:06:34.526Z,11.80
2022-11-04T18:09:21.183Z,11.80
2022-11-04T18:12:14.109Z,11.80
2022-11-04T18:15:04.927Z,11.80
2022-11-04T18:17:32.890Z,11.80
2022-11-04T18:20:18.487Z,11.70
2022-11-04T18:26:41.914Z,11.70
2022-11-04T18:32:08.752Z,11.60
2022-11-04T18:34:47.387Z,11.60
2022-11-04T18:37:16.588Z,11.60
2022-11-04T18:39:45.221Z,11.50
2022-11-04T18:42:14.076Z,11.50
2022-11-04T18:44:52.001Z,11.50
2022-11-04T18:47:20.407Z,11.50
2022-11-04T18:52:35.017Z,11.50
2022-11-04T18:55:06.275Z,11.50
2022-11-04T18:57:34.261Z,11.50
2022-11-04T19:00:10.517Z,11.50
2022-11-04T19:02:41.127Z,11.50
2022-11-04T19:05:14.249Z,11.40
2022-11-04T19:07:44.374Z,11.40
2022-11-04T19:10:15.654Z,11.40
2022-11-04T19:13:02.155Z,11.40
2022-11-04T19:15:32.174Z,11.30
2022-11-04T19:18:00.639Z,11.30
2022-11-04T19:20:29.116Z,11.30
2022-11-04T19:22:59.291Z,11.20
2022-11-04T19:25:27.760Z,11.20
2022-11-04T19:28:26.476Z,11.20
2022-11-04T19:30:57.623Z,11.20
2022-11-04T19:33:25.601Z,11.10
2022-11-04T19:35:54.691Z,11.10
2022-11-04T19:38:24.696Z,11.10
2022-11-04T19:40:55.376Z,11.10
2022-11-04T19:43:24.319Z,11.10
2022-11-04T19:46:01.386Z,11.10
2022-11-04T19:48:33.396Z,11.00
2022-11-04T19:51:01.378Z,11.00
2022-11-04T19:53:30.136Z,11.10
2022-11-04T19:55:58.669Z,11.00
2022-11-04T19:58:29.194Z,11.00
2022-11-04T20:01:08.266Z,11.00
2022-11-04T20:03:36.736Z,10.90
2022-11-04T20:06:05.318Z,10.90
2022-11-04T20:08:35.556Z,10.90
2022-11-04T20:11:04.030Z,10.90
2022-11-04T20:13:49.413Z,10.90
2022-11-04T20:16:21.952Z,10.90
2022-11-04T20:18:56.686Z,10.90
2022-11-04T20:21:26.705Z,10.80
2022-11-04T20:23:56.685Z,10.80
2022-11-04T20:26:25.907Z,10.80
2022-11-04T20:28:56.192Z,10.80
2022-11-04T20:31:27.667Z,10.70
2022-11-04T20:33:57.225Z,10.70
2022-11-04T20:36:27.625Z,10.70
2022-11-04T20:38:59.464Z,10.70
2022-11-04T20:41:27.743Z,10.70
2022-11-04T20:43:56.533Z,10.60
2022-11-04T20:46:27.776Z,10.60
2022-11-04T20:48:58.307Z,10.60
2022-11-04T20:51:28.844Z,10.60
2022-11-04T20:54:00.370Z,10.60
2022-11-04T20:56:32.274Z,10.60
2022-11-04T20:59:01.515Z,10.60
2022-11-04T21:01:35.210Z,10.60
2022-11-04T21:04:05.897Z,10.50
2022-11-04T21:06:36.892Z,10.50
2022-11-04T21:09:06.214Z,10.50
2022-11-04T21:11:35.263Z,10.50
2022-11-04T21:14:03.910Z,10.50
2022-11-04T21:16:33.577Z,10.40
2022-11-04T21:19:01.743Z,10.40
2022-11-04T21:21:30.663Z,10.40
2022-11-04T21:24:01.533Z,10.30
2022-11-04T21:26:32.128Z,10.30
2022-11-04T21:29:01.873Z,10.30
2022-11-04T21:31:34.392Z,10.30
2022-11-04T21:34:03.660Z,10.30
2022-11-04T21:36:32.319Z,10.20
2022-11-04T21:39:00.603Z,10.20
2022-11-04T21:41:34.430Z,10.20
2022-11-04T21:44:03.718Z,10.20
2022-11-04T21:46:35.614Z,10.20
2022-11-04T21:49:03.843Z,10.10
2022-11-04T21:51:34.364Z,10.10
2022-11-04T21:54:07.479Z,10.10
2022-11-04T21:56:38.790Z,10.00
2022-11-04T21:59:10.861Z,10.00
2022-11-04T22:01:42.375Z,10.00
2022-11-04T22:04:10.836Z,9.90
2022-11-04T22:06:39.569Z,9.90
2022-11-04T22:09:08.708Z,9.80
2022-11-04T22:11:39.437Z,9.80
2022-11-04T22:14:12.104Z,9.90
2022-11-04T22:16:42.356Z,9.80
2022-11-04T22:19:13.616Z,9.80
2022-11-04T22:21:43.471Z,9.80
2022-11-04T22:24:12.784Z,9.70
2022-11-04T22:26:48.551Z,9.70
2022-11-04T22:29:16.967Z,9.80
2022-11-04T22:31:51.826Z,9.80
2022-11-04T22:34:21.805Z,9.80
2022-11-04T22:36:49.798Z,9.80
2022-11-04T22:39:17.680Z,9.80
2022-11-04T22:41:47.233Z,9.80
2022-11-04T22:44:15.448Z,9.80
2022-11-04T22:46:44.127Z,9.70
2022-11-04T22:49:14.519Z,9.80
2022-11-04T22:51:43.639Z,9.70
2022-11-04T22:54:12.314Z,9.80
2022-11-04T22:56:40.583Z,9.80
2022-11-04T22:59:12.309Z,9.80
2022-11-04T23:01:40.874Z,9.80
2022-11-04T23:04:12.053Z,9.80
2022-11-04T23:06:42.017Z,9.70
2022-11-04T23:09:10.953Z,9.80
2022-11-04T23:11:56.749Z,9.80
2022-11-04T23:14:43.750Z,9.70
2022-11-04T23:17:33.769Z,9.80
2022-11-04T23:20:03.010Z,9.80
2022-11-04T23:22:49.816Z,9.70
2022-11-04T23:25:18.248Z,9.80
2022-11-04T23:28:06.814Z,9.80
2022-11-04T23:30:38.587Z,9.80
2022-11-04T23:33:09.614Z,9.80
2022-11-04T23:35:59.418Z,9.80
2022-11-04T23:38:30.004Z,9.80
2022-11-04T23:41:18.428Z,9.80
2022-11-04T23:43:48.050Z,9.90
2022-11-04T23:46:41.148Z,9.90
2022-11-04T23:49:30.242Z,9.90
2022-11-04T23:52:15.930Z,9.90
2022-11-04T23:55:05.476Z,10.00
2022-11-04T23:57:53.149Z,10.00
